Time,TemperatureF,DewpointF,PressureIn,WindDirection,WindDirectionDegrees,WindSpeedMPH,WindSpeedGustMPH,Humidity,HourlyPrecipIn,Conditions,Clouds,dailyrainin,SolarRadiationWatts/m^2,SoftwareType,DateUTC
2013-11-30 00:22:00,28.0,27.0,-100.00,North,350,2.0,4.0,95,0.00,,,0.00,0.000000,,2013-11-30 06:22:00,
2013-11-30 00:32:00,28.0,27.0,-100.00,North,350,2.0,4.0,95,0.00,,,0.00,0.000000,,2013-11-30 06:32:00,
2013-11-30 00:42:00,28.0,27.0,-100.00,North,350,2.0,4.0,95,0.00,,,0.00,0.000000,,2013-11-30 06:42:00,
2013-11-30 00:52:00,28.0,27.0,-100.00,North,350,2.0,4.0,95,0.00,,,0.00,0.000000,,2013-11-30 06:52:00,
2013-11-30 01:21:00,28.0,27.0,-100.00,North,359,2.0,3.0,95,0.00,,,0.00,0.000000,,2013-11-30 07:21:00,
2013-11-30 01:32:00,28.0,27.0,-100.00,North,359,2.0,3.0,95,0.00,,,0.00,0.000000,,2013-11-30 07:32:00,
2013-11-30 01:42:00,28.0,27.0,-100.00,North,359,2.0,3.0,95,0.00,,,0.00,0.000000,,2013-11-30 07:42:00,
2013-11-30 01:52:00,28.0,27.0,-100.00,North,359,2.0,3.0,95,0.00,,,0.00,0.000000,,2013-11-30 07:52:00,
2013-11-30 02:22:00,27.0,25.0,-100.00,WNW,301,0.0,2.0,92,0.00,,,0.00,0.000000,,2013-11-30 08:22:00,
2013-11-30 02:32:00,27.0,25.0,-100.00,WNW,301,0.0,2.0,92,0.00,,,0.00,0.000000,,2013-11-30 08:32:00,
2013-11-30 02:42:00,27.0,25.0,-100.00,WNW,301,0.0,2.0,92,0.00,,,0.00,0.000000,,2013-11-30 08:42:00,
2013-11-30 02:52:00,27.0,25.0,-100.00,WNW,301,0.0,2.0,92,0.00,,,0.00,0.000000,,2013-11-30 08:52:00,
2013-11-30 02:53:00,27.0,25.0,-100.00,West,275,0.0,2.0,93,0.00,,,0.00,0.000000,,2013-11-30 08:53:00,
2013-11-30 03:22:00,27.0,25.0,-100.00,West,275,0.0,2.0,93,0.00,,,0.00,0.000000,,2013-11-30 09:22:00,
2013-11-30 03:32:00,27.0,25.0,-100.00,West,275,0.0,2.0,93,0.00,,,0.00,0.000000,,2013-11-30 09:32:00,
2013-11-30 03:43:00,27.0,25.0,-100.00,West,275,0.0,2.0,93,0.00,,,0.00,0.000000,,2013-11-30 09:43:00,
2013-11-30 03:53:00,26.0,24.0,-100.00,ESE,109,2.0,2.0,93,0.00,,,0.00,0.000000,,2013-11-30 09:53:00,
2013-11-30 04:23:00,26.0,24.0,-100.00,ESE,109,2.0,2.0,93,0.00,,,0.00,0.000000,,2013-11-30 10:23:00,
2013-11-30 04:33:00,26.0,24.0,-100.00,ESE,109,2.0,2.0,93,0.00,,,0.00,0.000000,,2013-11-30 10:33:00,
2013-11-30 04:42:00,26.0,24.0,-100.00,ESE,109,2.0,2.0,93,0.00,,,0.00,0.000000,,2013-11-30 10:42:00,
2013-11-30 05:22:00,25.0,23.0,-100.00,SSE,147,1.0,3.0,93,0.00,,,0.00,0.000000,,2013-11-30 11:22:00,
2013-11-30 05:33:00,25.0,23.0,-100.00,SSE,147,1.0,3.0,93,0.00,,,0.00,0.000000,,2013-11-30 11:33:00,
2013-11-30 05:42:00,25.0,23.0,-100.00,SSE,147,1.0,3.0,93,0.00,,,0.00,0.000000,,2013-11-30 11:42:00,
2013-11-30 05:52:00,25.0,23.0,-100.00,SSE,147,1.0,3.0,93,0.00,,,0.00,0.000000,,2013-11-30 11:52:00,
2013-11-30 06:22:00,24.0,22.0,-100.00,WNW,301,1.0,3.0,93,0.00,,,0.00,0.000000,,2013-11-30 12:22:00,
2013-11-30 06:32:00,24.0,22.0,-100.00,WNW,301,1.0,3.0,93,0.00,,,0.00,0.000000,,2013-11-30 12:32:00,
2013-11-30 06:42:00,24.0,22.0,-100.00,WNW,301,1.0,3.0,93,0.00,,,0.00,0.000000,,2013-11-30 12:42:00,
2013-11-30 06:52:00,24.0,22.0,-100.00,WNW,301,1.0,3.0,93,0.00,,,0.00,0.000000,,2013-11-30 12:52:00,
2013-11-30 07:21:00,25.0,24.0,-100.00,NE,54,0.0,2.0,94,0.00,,,0.00,1.000000,,2013-11-30 13:21:00,
2013-11-30 07:32:00,25.0,24.0,-100.00,NE,54,0.0,2.0,94,0.00,,,0.00,1.000000,,2013-11-30 13:32:00,
2013-11-30 07:42:00,25.0,24.0,-100.00,NE,54,0.0,2.0,94,0.00,,,0.00,1.000000,,2013-11-30 13:42:00,
2013-11-30 07:52:00,25.0,24.0,-100.00,NE,54,0.0,2.0,94,0.00,,,0.00,1.000000,,2013-11-30 13:52:00,
2013-11-30 08:22:00,29.0,26.0,-100.00,SE,143,0.0,2.0,90,0.00,,,0.00,56.000000,,2013-11-30 14:22:00,
2013-11-30 08:32:00,29.0,26.0,-100.00,SE,143,0.0,2.0,90,0.00,,,0.00,56.000000,,2013-11-30 14:32:00,
2013-11-30 08:42:00,29.0,26.0,-100.00,SE,143,0.0,2.0,90,0.00,,,0.00,56.000000,,2013-11-30 14:42:00,
2013-11-30 08:52:00,29.0,26.0,-100.00,SE,143,0.0,2.0,90,0.00,,,0.00,56.000000,,2013-11-30 14:52:00,
2013-11-30 08:53:00,39.0,32.0,-100.00,South,177,5.0,8.0,76,0.00,,,0.00,276.000000,,2013-11-30 14:53:00,
2013-11-30 09:43:00,39.0,32.0,-100.00,South,177,5.0,8.0,76,0.00,,,0.00,276.000000,,2013-11-30 15:43:00,
2013-11-30 10:23:00,44.0,32.0,-100.00,SSW,194,7.0,13.0,63,0.00,,,0.00,450.000000,,2013-11-30 16:23:00,
2013-11-30 10:33:00,44.0,32.0,-100.00,SSW,194,7.0,13.0,63,0.00,,,0.00,450.000000,,2013-11-30 16:33:00,
2013-11-30 10:43:00,44.0,32.0,-100.00,SSW,194,7.0,13.0,63,0.00,,,0.00,450.000000,,2013-11-30 16:43:00,
2013-11-30 10:52:00,44.0,32.0,-100.00,SSW,194,7.0,13.0,63,0.00,,,0.00,450.000000,,2013-11-30 16:52:00,
2013-11-30 10:53:00,48.0,32.0,-100.00,SSW,202,8.0,14.0,54,0.00,,,0.00,559.000000,,2013-11-30 16:53:00,
2013-11-30 11:22:00,48.0,32.0,-100.00,SSW,202,8.0,14.0,54,0.00,,,0.00,559.000000,,2013-11-30 17:22:00,
2013-11-30 11:33:00,48.0,32.0,-100.00,SSW,202,8.0,14.0,54,0.00,,,0.00,559.000000,,2013-11-30 17:33:00,
2013-11-30 11:42:00,48.0,32.0,-100.00,SSW,202,8.0,14.0,54,0.00,,,0.00,559.000000,,2013-11-30 17:42:00,
2013-11-30 12:22:00,53.0,32.0,-100.00,SSW,196,10.0,16.0,45,0.00,,,0.00,654.000000,,2013-11-30 18:22:00,
2013-11-30 12:33:00,53.0,32.0,-100.00,SSW,196,10.0,16.0,45,0.00,,,0.00,654.000000,,2013-11-30 18:33:00,
2013-11-30 12:42:00,53.0,32.0,-100.00,SSW,196,10.0,16.0,45,0.00,,,0.00,654.000000,,2013-11-30 18:42:00,
2013-11-30 12:52:00,53.0,32.0,-100.00,SSW,196,10.0,16.0,45,0.00,,,0.00,654.000000,,2013-11-30 18:52:00,
2013-11-30 13:21:00,54.0,33.0,-100.00,SSW,204,10.0,18.0,45,0.00,,,0.00,646.000000,,2013-11-30 19:21:00,
2013-11-30 13:32:00,54.0,33.0,-100.00,SSW,204,10.0,18.0,45,0.00,,,0.00,646.000000,,2013-11-30 19:32:00,
2013-11-30 13:42:00,54.0,33.0,-100.00,SSW,204,10.0,18.0,45,0.00,,,0.00,646.000000,,2013-11-30 19:42:00,
2013-11-30 13:52:00,54.0,33.0,-100.00,SSW,204,10.0,18.0,45,0.00,,,0.00,646.000000,,2013-11-30 19:52:00,
2013-11-30 14:22:00,55.0,34.0,-100.00,South,183,9.0,17.0,45,0.00,,,0.00,600.000000,,2013-11-30 20:22:00,
2013-11-30 14:32:00,55.0,34.0,-100.00,South,183,9.0,17.0,45,0.00,,,0.00,600.000000,,2013-11-30 20:32:00,
2013-11-30 14:42:00,55.0,34.0,-100.00,South,183,9.0,17.0,45,0.00,,,0.00,600.000000,,2013-11-30 20:42:00,
2013-11-30 14:52:00,55.0,34.0,-100.00,South,183,9.0,17.0,45,0.00,,,0.00,600.000000,,2013-11-30 20:52:00,
2013-11-30 14:53:00,53.0,34.0,-100.00,South,188,9.0,18.0,49,0.00,,,0.00,400.000000,,2013-11-30 20:53:00,
2013-11-30 15:22:00,53.0,34.0,-100.00,South,188,9.0,18.0,49,0.00,,,0.00,400.000000,,2013-11-30 21:22:00,
2013-11-30 15:33:00,53.0,34.0,-100.00,South,188,9.0,18.0,49,0.00,,,0.00,400.000000,,2013-11-30 21:33:00,
2013-11-30 15:43:00,53.0,34.0,-100.00,South,188,9.0,18.0,49,0.00,,,0.00,400.000000,,2013-11-30 21:43:00,
2013-11-30 16:23:00,50.0,35.0,-100.00,South,188,8.0,16.0,56,0.00,,,0.00,105.000000,,2013-11-30 22:23:00,
2013-11-30 16:33:00,50.0,35.0,-100.00,South,188,8.0,16.0,56,0.00,,,0.00,105.000000,,2013-11-30 22:33:00,
2013-11-30 16:42:00,50.0,35.0,-100.00,South,188,8.0,16.0,56,0.00,,,0.00,105.000000,,2013-11-30 22:42:00,
2013-11-30 16:52:00,50.0,35.0,-100.00,South,188,8.0,16.0,56,0.00,,,0.00,105.000000,,2013-11-30 22:52:00,
2013-11-30 16:53:00,48.0,35.0,-100.00,South,189,7.0,13.0,61,0.00,,,0.00,24.000000,,2013-11-30 22:53:00,
2013-11-30 17:22:00,48.0,35.0,-100.00,South,189,7.0,13.0,61,0.00,,,0.00,24.000000,,2013-11-30 23:22:00,
2013-11-30 17:33:00,48.0,35.0,-100.00,South,189,7.0,13.0,61,0.00,,,0.00,24.000000,,2013-11-30 23:33:00,
2013-11-30 17:42:00,48.0,35.0,-100.00,South,189,7.0,13.0,61,0.00,,,0.00,24.000000,,2013-11-30 23:42:00,
2013-11-30 18:21:00,47.0,35.0,-100.00,SSW,200,6.0,15.0,63,0.00,,,0.00,0.000000,,2013-12-01 00:21:00,
2013-11-30 18:32:00,47.0,35.0,-100.00,SSW,200,6.0,15.0,63,0.00,,,0.00,0.000000,,2013-12-01 00:32:00,
2013-11-30 18:42:00,47.0,35.0,-100.00,SSW,200,6.0,15.0,63,0.00,,,0.00,0.000000,,2013-12-01 00:42:00,
2013-11-30 18:52:00,47.0,35.0,-100.00,SSW,200,6.0,15.0,63,0.00,,,0.00,0.000000,,2013-12-01 00:52:00,
2013-11-30 19:21:00,46.0,35.0,-100.00,SSW,192,5.0,11.0,65,0.00,,,0.00,0.000000,,2013-12-01 01:21:00,
2013-11-30 19:32:00,46.0,35.0,-100.00,SSW,192,5.0,11.0,65,0.00,,,0.00,0.000000,,2013-12-01 01:32:00,
2013-11-30 19:42:00,46.0,35.0,-100.00,SSW,192,5.0,11.0,65,0.00,,,0.00,0.000000,,2013-12-01 01:42:00,
2013-11-30 19:52:00,46.0,35.0,-100.00,SSW,192,5.0,11.0,65,0.00,,,0.00,0.000000,,2013-12-01 01:52:00,
2013-11-30 20:21:00,45.0,35.0,-100.00,SSW,203,6.0,11.0,68,0.00,,,0.00,0.000000,,2013-12-01 02:21:00,
2013-11-30 20:32:00,45.0,35.0,-100.00,SSW,203,6.0,11.0,68,0.00,,,0.00,0.000000,,2013-12-01 02:32:00,
2013-11-30 20:42:00,45.0,35.0,-100.00,SSW,203,6.0,11.0,68,0.00,,,0.00,0.000000,,2013-12-01 02:42:00,
2013-11-30 20:52:00,45.0,35.0,-100.00,SSW,203,6.0,11.0,68,0.00,,,0.00,0.000000,,2013-12-01 02:52:00,
2013-11-30 20:53:00,45.0,35.0,-100.00,SSW,211,5.0,11.0,68,0.00,,,0.00,0.000000,,2013-12-01 02:53:00,
2013-11-30 21:21:00,45.0,35.0,-100.00,SSW,211,5.0,11.0,68,0.00,,,0.00,0.000000,,2013-12-01 03:21:00,
2013-11-30 21:33:00,45.0,35.0,-100.00,SSW,211,5.0,11.0,68,0.00,,,0.00,0.000000,,2013-12-01 03:33:00,
2013-11-30 21:43:00,45.0,35.0,-100.00,SSW,211,5.0,11.0,68,0.00,,,0.00,0.000000,,2013-12-01 03:43:00,
2013-11-30 22:22:00,44.0,36.0,-100.00,SSW,212,5.0,8.0,72,0.00,,,0.00,0.000000,,2013-12-01 04:22:00,
2013-11-30 22:33:00,44.0,36.0,-100.00,SSW,212,5.0,8.0,72,0.00,,,0.00,0.000000,,2013-12-01 04:33:00,
2013-11-30 22:42:00,44.0,36.0,-100.00,SSW,212,5.0,8.0,72,0.00,,,0.00,0.000000,,2013-12-01 04:42:00,
2013-11-30 22:52:00,44.0,36.0,-100.00,SSW,212,5.0,8.0,72,0.00,,,0.00,0.000000,,2013-12-01 04:52:00,
2013-11-30 22:53:00,40.0,35.0,-100.00,WNW,285,1.0,6.0,81,0.00,,,0.00,0.000000,,2013-12-01 04:53:00,
2013-11-30 23:22:00,40.0,35.0,-100.00,WNW,285,1.0,6.0,81,0.00,,,0.00,0.000000,,2013-12-01 05:22:00,
2013-11-30 23:33:00,40.0,35.0,-100.00,WNW,285,1.0,6.0,81,0.00,,,0.00,0.000000,,2013-12-01 05:33:00,
2013-11-30 23:43:00,40.0,35.0,-100.00,WNW,285,1.0,6.0,81,0.00,,,0.00,0.000000,,2013-12-01 05:43:00,